sensor_id;sensor_type;location;lat;lon;timestamp;P1;durP1;ratioP1;P2;durP2;ratioP2
6983;SDS011;3532;51.118;7.210;2023-02-26T00:01:29;9.70;;;3.10;;
6983;SDS011;3532;51.118;7.210;2023-02-26T00:03:57;7.75;;;3.50;;
6983;SDS011;3532;51.118;7.210;2023-02-26T00:06:26;7.63;;;3.50;;
6983;SDS011;3532;51.118;7.210;2023-02-26T00:08:52;6.00;;;2.88;;
6983;SDS011;3532;51.118;7.210;2023-02-26T00:11:18;9.33;;;3.67;;
6983;SDS011;3532;51.118;7.210;2023-02-26T00:13:43;6.80;;;3.60;;
6983;SDS011;3532;51.118;7.210;2023-02-26T00:18:52;5.78;;;3.28;;
6983;SDS011;3532;51.118;7.210;2023-02-26T00:21:19;9.77;;;4.25;;
6983;SDS011;3532;51.118;7.210;2023-02-26T00:23:46;5.60;;;3.50;;
6983;SDS011;3532;51.118;7.210;2023-02-26T00:26:11;10.10;;;3.43;;
6983;SDS011;3532;51.118;7.210;2023-02-26T00:28:36;4.37;;;3.57;;
6983;SDS011;3532;51.118;7.210;2023-02-26T00:31:02;3.70;;;3.10;;
6983;SDS011;3532;51.118;7.210;2023-02-26T00:33:28;8.53;;;3.70;;
6983;SDS011;3532;51.118;7.210;2023-02-26T00:35:55;6.83;;;3.90;;
6983;SDS011;3532;51.118;7.210;2023-02-26T00:38:29;4.45;;;3.35;;
6983;SDS011;3532;51.118;7.210;2023-02-26T00:40:56;6.40;;;3.45;;
6983;SDS011;3532;51.118;7.210;2023-02-26T00:43:23;8.93;;;3.47;;
6983;SDS011;3532;51.118;7.210;2023-02-26T00:48:37;4.28;;;3.05;;
6983;SDS011;3532;51.118;7.210;2023-02-26T00:51:29;3.47;;;3.05;;
6983;SDS011;3532;51.118;7.210;2023-02-26T00:54:04;4.32;;;3.22;;
6983;SDS011;3532;51.118;7.210;2023-02-26T00:56:45;6.47;;;2.67;;
6983;SDS011;3532;51.118;7.210;2023-02-26T00:59:11;6.13;;;3.17;;
6983;SDS011;3532;51.118;7.210;2023-02-26T01:01:37;6.63;;;3.03;;
6983;SDS011;3532;51.118;7.210;2023-02-26T01:04:02;4.63;;;2.73;;
6983;SDS011;3532;51.118;7.210;2023-02-26T01:06:29;4.07;;;2.90;;
6983;SDS011;3532;51.118;7.210;2023-02-26T01:09:11;3.80;;;2.50;;
6983;SDS011;3532;51.118;7.210;2023-02-26T01:11:40;5.13;;;3.17;;
6983;SDS011;3532;51.118;7.210;2023-02-26T01:14:05;4.70;;;2.70;;
6983;SDS011;3532;51.118;7.210;2023-02-26T01:16:33;3.07;;;2.87;;
6983;SDS011;3532;51.118;7.210;2023-02-26T01:19:27;3.53;;;2.63;;
6983;SDS011;3532;51.118;7.210;2023-02-26T01:22:14;5.32;;;3.10;;
6983;SDS011;3532;51.118;7.210;2023-02-26T01:24:47;4.25;;;3.00;;
6983;SDS011;3532;51.118;7.210;2023-02-26T01:27:13;4.90;;;2.80;;
6983;SDS011;3532;51.118;7.210;2023-02-26T01:29:39;4.67;;;2.27;;
6983;SDS011;3532;51.118;7.210;2023-02-26T01:34:59;6.55;;;3.05;;
6983;SDS011;3532;51.118;7.210;2023-02-26T01:42:55;5.78;;;2.83;;
6983;SDS011;3532;51.118;7.210;2023-02-26T01:45:25;4.65;;;2.95;;
6983;SDS011;3532;51.118;7.210;2023-02-26T01:48:17;3.55;;;2.42;;
6983;SDS011;3532;51.118;7.210;2023-02-26T01:50:48;4.63;;;3.15;;
6983;SDS011;3532;51.118;7.210;2023-02-26T01:56:03;3.63;;;2.90;;
6983;SDS011;3532;51.118;7.210;2023-02-26T01:58:37;4.70;;;2.50;;
6983;SDS011;3532;51.118;7.210;2023-02-26T02:01:03;3.73;;;3.27;;
6983;SDS011;3532;51.118;7.210;2023-02-26T02:03:29;3.37;;;2.77;;
6983;SDS011;3532;51.118;7.210;2023-02-26T02:05:57;6.10;;;2.90;;
6983;SDS011;3532;51.118;7.210;2023-02-26T02:08:25;6.70;;;3.10;;
6983;SDS011;3532;51.118;7.210;2023-02-26T02:10:50;5.07;;;2.90;;
6983;SDS011;3532;51.118;7.210;2023-02-26T02:16:07;7.43;;;2.97;;
6983;SDS011;3532;51.118;7.210;2023-02-26T02:26:43;3.05;;;2.75;;
6983;SDS011;3532;51.118;7.210;2023-02-26T02:31:54;5.05;;;3.30;;
6983;SDS011;3532;51.118;7.210;2023-02-26T02:37:19;4.78;;;2.85;;
6983;SDS011;3532;51.118;7.210;2023-02-26T02:40:00;6.50;;;2.75;;
6983;SDS011;3532;51.118;7.210;2023-02-26T02:42:43;4.80;;;3.03;;
6983;SDS011;3532;51.118;7.210;2023-02-26T02:45:23;3.65;;;3.22;;
6983;SDS011;3532;51.118;7.210;2023-02-26T02:47:52;3.15;;;2.40;;
6983;SDS011;3532;51.118;7.210;2023-02-26T02:52:51;4.35;;;2.72;;
6983;SDS011;3532;51.118;7.210;2023-02-26T02:55:21;2.97;;;2.53;;
6983;SDS011;3532;51.118;7.210;2023-02-26T02:58:10;3.58;;;2.80;;
6983;SDS011;3532;51.118;7.210;2023-02-26T03:00:48;3.38;;;3.08;;
6983;SDS011;3532;51.118;7.210;2023-02-26T03:05:56;6.03;;;2.65;;
6983;SDS011;3532;51.118;7.210;2023-02-26T03:08:23;3.73;;;2.97;;
6983;SDS011;3532;51.118;7.210;2023-02-26T03:10:51;9.57;;;3.50;;
6983;SDS011;3532;51.118;7.210;2023-02-26T03:13:17;5.83;;;2.73;;
6983;SDS011;3532;51.118;7.210;2023-02-26T03:16:05;5.68;;;3.10;;
6983;SDS011;3532;51.118;7.210;2023-02-26T03:18:55;4.32;;;2.50;;
6983;SDS011;3532;51.118;7.210;2023-02-26T03:24:51;4.32;;;2.88;;
6983;SDS011;3532;51.118;7.210;2023-02-26T03:27:23;3.53;;;2.80;;
6983;SDS011;3532;51.118;7.210;2023-02-26T03:29:53;4.32;;;3.03;;
6983;SDS011;3532;51.118;7.210;2023-02-26T03:32:22;5.57;;;3.17;;
6983;SDS011;3532;51.118;7.210;2023-02-26T03:34:52;5.18;;;2.60;;
6983;SDS011;3532;51.118;7.210;2023-02-26T03:37:35;5.93;;;3.00;;
6983;SDS011;3532;51.118;7.210;2023-02-26T03:40:05;3.30;;;2.95;;
6983;SDS011;3532;51.118;7.210;2023-02-26T03:42:45;4.47;;;2.42;;
6983;SDS011;3532;51.118;7.210;2023-02-26T03:45:13;5.20;;;2.90;;
6983;SDS011;3532;51.118;7.210;2023-02-26T03:47:49;3.95;;;2.97;;
6983;SDS011;3532;51.118;7.210;2023-02-26T03:50:23;2.60;;;2.40;;
6983;SDS011;3532;51.118;7.210;2023-02-26T03:52:52;3.17;;;2.78;;
6983;SDS011;3532;51.118;7.210;2023-02-26T03:56:00;5.63;;;2.73;;
6983;SDS011;3532;51.118;7.210;2023-02-26T03:58:10;4.97;;;2.83;;
6983;SDS011;3532;51.118;7.210;2023-02-26T04:00:36;3.97;;;2.60;;
6983;SDS011;3532;51.118;7.210;2023-02-26T04:05:44;6.28;;;3.05;;
6983;SDS011;3532;51.118;7.210;2023-02-26T04:08:13;3.33;;;2.70;;
6983;SDS011;3532;51.118;7.210;2023-02-26T04:10:43;2.83;;;2.50;;
6983;SDS011;3532;51.118;7.210;2023-02-26T04:13:11;5.63;;;2.53;;
6983;SDS011;3532;51.118;7.210;2023-02-26T04:15:37;5.00;;;2.73;;
6983;SDS011;3532;51.118;7.210;2023-02-26T04:18:02;4.27;;;2.57;;
6983;SDS011;3532;51.118;7.210;2023-02-26T04:20:28;3.27;;;2.50;;
6983;SDS011;3532;51.118;7.210;2023-02-26T04:22:53;4.60;;;2.83;;
6983;SDS011;3532;51.118;7.210;2023-02-26T04:25:18;9.23;;;3.13;;
6983;SDS011;3532;51.118;7.210;2023-02-26T04:27:44;4.07;;;2.07;;
6983;SDS011;3532;51.118;7.210;2023-02-26T04:30:09;4.07;;;2.63;;
6983;SDS011;3532;51.118;7.210;2023-02-26T04:32:35;2.95;;;2.53;;
6983;SDS011;3532;51.118;7.210;2023-02-26T04:35:00;2.57;;;2.37;;
6983;SDS011;3532;51.118;7.210;2023-02-26T04:37:26;4.77;;;2.17;;
6983;SDS011;3532;51.118;7.210;2023-02-26T04:39:51;4.70;;;2.50;;
6983;SDS011;3532;51.118;7.210;2023-02-26T04:42:16;3.47;;;2.77;;
6983;SDS011;3532;51.118;7.210;2023-02-26T04:44:42;5.07;;;2.20;;
6983;SDS011;3532;51.118;7.210;2023-02-26T04:47:07;4.20;;;2.20;;
6983;SDS011;3532;51.118;7.210;2023-02-26T04:49:32;2.73;;;2.10;;
6983;SDS011;3532;51.118;7.210;2023-02-26T04:51:58;5.27;;;3.27;;
6983;SDS011;3532;51.118;7.210;2023-02-26T04:54:23;2.10;;;1.90;;
6983;SDS011;3532;51.118;7.210;2023-02-26T04:56:49;2.70;;;2.50;;
6983;SDS011;3532;51.118;7.210;2023-02-26T04:59:14;5.83;;;2.53;;
6983;SDS011;3532;51.118;7.210;2023-02-26T05:01:39;5.27;;;2.30;;
6983;SDS011;3532;51.118;7.210;2023-02-26T05:04:05;4.97;;;2.57;;
6983;SDS011;3532;51.118;7.210;2023-02-26T05:06:31;4.33;;;2.47;;
6983;SDS011;3532;51.118;7.210;2023-02-26T05:08:56;4.17;;;2.13;;
6983;SDS011;3532;51.118;7.210;2023-02-26T05:11:21;3.37;;;2.67;;
6983;SDS011;3532;51.118;7.210;2023-02-26T05:13:47;3.70;;;2.33;;
6983;SDS011;3532;51.118;7.210;2023-02-26T05:16:12;2.80;;;2.60;;
6983;SDS011;3532;51.118;7.210;2023-02-26T05:18:37;6.43;;;2.53;;
6983;SDS011;3532;51.118;7.210;2023-02-26T05:21:03;3.80;;;2.60;;
6983;SDS011;3532;51.118;7.210;2023-02-26T05:23:29;2.63;;;2.35;;
6983;SDS011;3532;51.118;7.210;2023-02-26T05:25:55;5.13;;;2.70;;
6983;SDS011;3532;51.118;7.210;2023-02-26T05:28:21;6.35;;;2.92;;
6983;SDS011;3532;51.118;7.210;2023-02-26T05:30:46;5.93;;;3.17;;
6983;SDS011;3532;51.118;7.210;2023-02-26T05:33:11;6.10;;;3.30;;
6983;SDS011;3532;51.118;7.210;2023-02-26T05:35:37;5.43;;;2.83;;
6983;SDS011;3532;51.118;7.210;2023-02-26T05:38:02;6.23;;;3.13;;
6983;SDS011;3532;51.118;7.210;2023-02-26T05:40:28;3.63;;;3.03;;
6983;SDS011;3532;51.118;7.210;2023-02-26T05:42:53;3.20;;;2.90;;
6983;SDS011;3532;51.118;7.210;2023-02-26T05:45:18;4.27;;;3.27;;
6983;SDS011;3532;51.118;7.210;2023-02-26T05:47:43;3.33;;;2.87;;
6983;SDS011;3532;51.118;7.210;2023-02-26T05:50:09;7.10;;;3.40;;
6983;SDS011;3532;51.118;7.210;2023-02-26T05:52:35;4.20;;;3.22;;
6983;SDS011;3532;51.118;7.210;2023-02-26T05:55:00;4.27;;;3.43;;
6983;SDS011;3532;51.118;7.210;2023-02-26T05:57:26;5.50;;;2.83;;
6983;SDS011;3532;51.118;7.210;2023-02-26T05:59:51;3.23;;;3.03;;
6983;SDS011;3532;51.118;7.210;2023-02-26T06:02:17;5.43;;;3.33;;
6983;SDS011;3532;51.118;7.210;2023-02-26T06:04:42;5.50;;;3.50;;
6983;SDS011;3532;51.118;7.210;2023-02-26T06:07:08;3.23;;;2.80;;
6983;SDS011;3532;51.118;7.210;2023-02-26T06:09:33;7.23;;;3.97;;
6983;SDS011;3532;51.118;7.210;2023-02-26T06:11:58;6.30;;;3.63;;
6983;SDS011;3532;51.118;7.210;2023-02-26T06:14:24;6.17;;;3.67;;
6983;SDS011;3532;51.118;7.210;2023-02-26T06:16:49;5.77;;;3.30;;
6983;SDS011;3532;51.118;7.210;2023-02-26T06:19:14;6.60;;;3.10;;
6983;SDS011;3532;51.118;7.210;2023-02-26T06:21:40;5.70;;;3.10;;
6983;SDS011;3532;51.118;7.210;2023-02-26T06:24:05;3.77;;;3.40;;
6983;SDS011;3532;51.118;7.210;2023-02-26T06:26:31;3.60;;;3.10;;
6983;SDS011;3532;51.118;7.210;2023-02-26T06:28:56;3.37;;;3.03;;
6983;SDS011;3532;51.118;7.210;2023-02-26T06:31:22;6.37;;;3.37;;
6983;SDS011;3532;51.118;7.210;2023-02-26T06:33:47;3.97;;;3.60;;
6983;SDS011;3532;51.118;7.210;2023-02-26T06:36:12;4.93;;;4.37;;
6983;SDS011;3532;51.118;7.210;2023-02-26T06:38:38;6.93;;;3.70;;
6983;SDS011;3532;51.118;7.210;2023-02-26T06:41:03;3.23;;;2.93;;
6983;SDS011;3532;51.118;7.210;2023-02-26T06:43:28;4.10;;;3.70;;
6983;SDS011;3532;51.118;7.210;2023-02-26T06:45:56;4.73;;;4.33;;
6983;SDS011;3532;51.118;7.210;2023-02-26T06:48:24;5.40;;;3.35;;
6983;SDS011;3532;51.118;7.210;2023-02-26T06:50:50;4.85;;;3.25;;
6983;SDS011;3532;51.118;7.210;2023-02-26T06:53:16;4.97;;;3.77;;
6983;SDS011;3532;51.118;7.210;2023-02-26T06:55:44;5.90;;;3.60;;
6983;SDS011;3532;51.118;7.210;2023-02-26T06:58:10;4.32;;;3.40;;
6983;SDS011;3532;51.118;7.210;2023-02-26T07:00:36;7.77;;;3.87;;
6983;SDS011;3532;51.118;7.210;2023-02-26T07:03:02;4.10;;;3.70;;
6983;SDS011;3532;51.118;7.210;2023-02-26T07:05:28;6.10;;;4.18;;
6983;SDS011;3532;51.118;7.210;2023-02-26T07:07:53;3.77;;;3.20;;
6983;SDS011;3532;51.118;7.210;2023-02-26T07:10:18;6.07;;;4.50;;
6983;SDS011;3532;51.118;7.210;2023-02-26T07:12:45;4.30;;;3.67;;
6983;SDS011;3532;51.118;7.210;2023-02-26T07:15:11;3.87;;;3.43;;
6983;SDS011;3532;51.118;7.210;2023-02-26T07:17:36;6.23;;;3.70;;
6983;SDS011;3532;51.118;7.210;2023-02-26T07:20:01;3.43;;;3.10;;
6983;SDS011;3532;51.118;7.210;2023-02-26T07:22:30;6.82;;;3.95;;
6983;SDS011;3532;51.118;7.210;2023-02-26T07:24:56;5.18;;;4.10;;
6983;SDS011;3532;51.118;7.210;2023-02-26T07:27:24;3.78;;;3.20;;
6983;SDS011;3532;51.118;7.210;2023-02-26T07:29:49;4.80;;;3.27;;
6983;SDS011;3532;51.118;7.210;2023-02-26T07:32:15;8.07;;;3.83;;
6983;SDS011;3532;51.118;7.210;2023-02-26T07:34:40;5.87;;;3.13;;
6983;SDS011;3532;51.118;7.210;2023-02-26T07:37:06;4.80;;;4.00;;
6983;SDS011;3532;51.118;7.210;2023-02-26T07:39:31;3.63;;;3.33;;
6983;SDS011;3532;51.118;7.210;2023-02-26T07:41:56;6.57;;;3.60;;
6983;SDS011;3532;51.118;7.210;2023-02-26T07:44:22;4.97;;;3.50;;
6983;SDS011;3532;51.118;7.210;2023-02-26T07:46:47;6.27;;;4.90;;
6983;SDS011;3532;51.118;7.210;2023-02-26T07:49:12;4.87;;;4.10;;
6983;SDS011;3532;51.118;7.210;2023-02-26T07:51:38;5.53;;;4.20;;
6983;SDS011;3532;51.118;7.210;2023-02-26T07:54:04;3.72;;;3.30;;
6983;SDS011;3532;51.118;7.210;2023-02-26T07:56:30;7.27;;;3.37;;
6983;SDS011;3532;51.118;7.210;2023-02-26T07:58:55;7.80;;;3.50;;
6983;SDS011;3532;51.118;7.210;2023-02-26T08:01:21;4.87;;;3.30;;
6983;SDS011;3532;51.118;7.210;2023-02-26T08:03:46;3.83;;;3.50;;
6983;SDS011;3532;51.118;7.210;2023-02-26T08:06:12;4.23;;;2.70;;
6983;SDS011;3532;51.118;7.210;2023-02-26T08:08:38;4.13;;;3.17;;
6983;SDS011;3532;51.118;7.210;2023-02-26T08:11:03;2.90;;;2.70;;
6983;SDS011;3532;51.118;7.210;2023-02-26T08:13:28;6.77;;;3.17;;
6983;SDS011;3532;51.118;7.210;2023-02-26T08:15:54;2.67;;;2.47;;
6983;SDS011;3532;51.118;7.210;2023-02-26T08:18:19;3.30;;;2.60;;
6983;SDS011;3532;51.118;7.210;2023-02-26T08:20:45;3.33;;;2.80;;
6983;SDS011;3532;51.118;7.210;2023-02-26T08:23:10;2.90;;;2.70;;
6983;SDS011;3532;51.118;7.210;2023-02-26T08:25:35;3.67;;;3.03;;
6983;SDS011;3532;51.118;7.210;2023-02-26T08:28:00;5.07;;;2.67;;
6983;SDS011;3532;51.118;7.210;2023-02-26T08:30:27;3.42;;;2.70;;
6983;SDS011;3532;51.118;7.210;2023-02-26T08:32:53;4.73;;;2.80;;
6983;SDS011;3532;51.118;7.210;2023-02-26T08:35:18;4.10;;;2.80;;
6983;SDS011;3532;51.118;7.210;2023-02-26T08:37:43;4.80;;;3.30;;
6983;SDS011;3532;51.118;7.210;2023-02-26T08:40:09;2.73;;;2.33;;
6983;SDS011;3532;51.118;7.210;2023-02-26T08:42:35;3.27;;;2.87;;
6983;SDS011;3532;51.118;7.210;2023-02-26T08:45:00;3.63;;;2.30;;
6983;SDS011;3532;51.118;7.210;2023-02-26T08:47:25;4.77;;;2.67;;
6983;SDS011;3532;51.118;7.210;2023-02-26T08:49:51;3.73;;;2.40;;
6983;SDS011;3532;51.118;7.210;2023-02-26T08:52:16;2.90;;;2.33;;
6983;SDS011;3532;51.118;7.210;2023-02-26T08:54:41;2.80;;;2.37;;
6983;SDS011;3532;51.118;7.210;2023-02-26T08:57:07;2.70;;;2.50;;
6983;SDS011;3532;51.118;7.210;2023-02-26T08:59:32;2.60;;;2.40;;
6983;SDS011;3532;51.118;7.210;2023-02-26T09:01:57;3.60;;;2.57;;
6983;SDS011;3532;51.118;7.210;2023-02-26T09:04:23;4.77;;;2.60;;
6983;SDS011;3532;51.118;7.210;2023-02-26T09:06:48;3.20;;;2.50;;
6983;SDS011;3532;51.118;7.210;2023-02-26T09:09:13;5.40;;;2.60;;
6983;SDS011;3532;51.118;7.210;2023-02-26T09:11:39;2.37;;;2.13;;
6983;SDS011;3532;51.118;7.210;2023-02-26T09:14:04;2.90;;;2.60;;
6983;SDS011;3532;51.118;7.210;2023-02-26T09:16:29;4.80;;;2.60;;
6983;SDS011;3532;51.118;7.210;2023-02-26T09:18:55;2.57;;;2.33;;
6983;SDS011;3532;51.118;7.210;2023-02-26T09:21:21;6.10;;;2.83;;
6983;SDS011;3532;51.118;7.210;2023-02-26T09:23:47;2.57;;;2.00;;
6983;SDS011;3532;51.118;7.210;2023-02-26T09:26:12;2.57;;;2.10;;
6983;SDS011;3532;51.118;7.210;2023-02-26T09:28:38;5.07;;;2.47;;
6983;SDS011;3532;51.118;7.210;2023-02-26T09:31:03;3.80;;;2.00;;
6983;SDS011;3532;51.118;7.210;2023-02-26T09:33:30;4.70;;;2.35;;
6983;SDS011;3532;51.118;7.210;2023-02-26T09:35:56;3.17;;;2.13;;
6983;SDS011;3532;51.118;7.210;2023-02-26T09:38:21;4.10;;;2.30;;
6983;SDS011;3532;51.118;7.210;2023-02-26T09:40:48;2.77;;;2.57;;
6983;SDS011;3532;51.118;7.210;2023-02-26T09:46:05;3.83;;;2.15;;
6983;SDS011;3532;51.118;7.210;2023-02-26T09:48:47;2.35;;;2.15;;
6983;SDS011;3532;51.118;7.210;2023-02-26T09:51:18;2.00;;;1.90;;
6983;SDS011;3532;51.118;7.210;2023-02-26T09:53:45;2.88;;;1.80;;
6983;SDS011;3532;51.118;7.210;2023-02-26T09:56:15;2.58;;;2.20;;
6983;SDS011;3532;51.118;7.210;2023-02-26T09:58:42;2.30;;;2.10;;
6983;SDS011;3532;51.118;7.210;2023-02-26T10:06:37;6.10;;;2.80;;
6983;SDS011;3532;51.118;7.210;2023-02-26T10:12:04;2.75;;;2.10;;
6983;SDS011;3532;51.118;7.210;2023-02-26T10:19:57;3.22;;;2.22;;
6983;SDS011;3532;51.118;7.210;2023-02-26T10:30:41;3.35;;;2.40;;
6983;SDS011;3532;51.118;7.210;2023-02-26T10:33:42;2.70;;;2.00;;
6983;SDS011;3532;51.118;7.210;2023-02-26T10:36:21;2.22;;;1.83;;
6983;SDS011;3532;51.118;7.210;2023-02-26T10:38:49;3.28;;;2.15;;
6983;SDS011;3532;51.118;7.210;2023-02-26T10:41:22;2.63;;;2.30;;
6983;SDS011;3532;51.118;7.210;2023-02-26T10:44:12;2.22;;;2.00;;
6983;SDS011;3532;51.118;7.210;2023-02-26T10:46:54;2.33;;;1.95;;
6983;SDS011;3532;51.118;7.210;2023-02-26T10:52:15;2.55;;;2.15;;
6983;SDS011;3532;51.118;7.210;2023-02-26T10:54:45;3.55;;;2.33;;
6983;SDS011;3532;51.118;7.210;2023-02-26T10:57:29;2.72;;;2.10;;
6983;SDS011;3532;51.118;7.210;2023-02-26T11:00:00;2.42;;;2.00;;
6983;SDS011;3532;51.118;7.210;2023-02-26T11:02:44;2.50;;;2.30;;
6983;SDS011;3532;51.118;7.210;2023-02-26T11:05:45;2.42;;;2.08;;
6983;SDS011;3532;51.118;7.210;2023-02-26T11:08:04;4.13;;;2.78;;
6983;SDS011;3532;51.118;7.210;2023-02-26T11:10:38;2.17;;;1.80;;
6983;SDS011;3532;51.118;7.210;2023-02-26T11:13:05;2.08;;;1.63;;
6983;SDS011;3532;51.118;7.210;2023-02-26T11:15:30;2.93;;;2.10;;
6983;SDS011;3532;51.118;7.210;2023-02-26T11:17:56;2.33;;;1.90;;
6983;SDS011;3532;51.118;7.210;2023-02-26T11:20:28;2.50;;;1.83;;
6983;SDS011;3532;51.118;7.210;2023-02-26T11:22:56;2.10;;;2.00;;
6983;SDS011;3532;51.118;7.210;2023-02-26T11:25:25;4.53;;;2.17;;
6983;SDS011;3532;51.118;7.210;2023-02-26T11:28:06;2.10;;;1.80;;
6983;SDS011;3532;51.118;7.210;2023-02-26T11:30:41;2.50;;;1.90;;
6983;SDS011;3532;51.118;7.210;2023-02-26T11:33:19;2.42;;;1.90;;
6983;SDS011;3532;51.118;7.210;2023-02-26T11:35:47;2.75;;;1.85;;
6983;SDS011;3532;51.118;7.210;2023-02-26T11:38:20;2.07;;;1.87;;
6983;SDS011;3532;51.118;7.210;2023-02-26T11:40:48;2.40;;;2.00;;
6983;SDS011;3532;51.118;7.210;2023-02-26T11:43:17;3.58;;;1.80;;
6983;SDS011;3532;51.118;7.210;2023-02-26T11:45:46;2.63;;;1.90;;
6983;SDS011;3532;51.118;7.210;2023-02-26T11:48:14;1.70;;;1.60;;
6983;SDS011;3532;51.118;7.210;2023-02-26T11:50:46;5.40;;;2.03;;
6983;SDS011;3532;51.118;7.210;2023-02-26T11:53:18;3.65;;;1.83;;
6983;SDS011;3532;51.118;7.210;2023-02-26T11:55:47;1.75;;;1.60;;
6983;SDS011;3532;51.118;7.210;2023-02-26T11:58:20;2.95;;;2.03;;
6983;SDS011;3532;51.118;7.210;2023-02-26T12:00:47;2.70;;;2.25;;
6983;SDS011;3532;51.118;7.210;2023-02-26T12:03:17;3.22;;;2.08;;
6983;SDS011;3532;51.118;7.210;2023-02-26T12:05:44;3.80;;;2.13;;
6983;SDS011;3532;51.118;7.210;2023-02-26T12:08:16;2.17;;;1.97;;
6983;SDS011;3532;51.118;7.210;2023-02-26T12:10:54;4.80;;;2.25;;
6983;SDS011;3532;51.118;7.210;2023-02-26T12:16:10;2.00;;;1.90;;
6983;SDS011;3532;51.118;7.210;2023-02-26T12:18:46;3.58;;;1.90;;
6983;SDS011;3532;51.118;7.210;2023-02-26T12:44:07;3.38;;;3.03;;
6983;SDS011;3532;51.118;7.210;2023-02-26T12:50:01;1.90;;;1.80;;
6983;SDS011;3532;51.118;7.210;2023-02-26T12:55:23;2.03;;;1.83;;
6983;SDS011;3532;51.118;7.210;2023-02-26T13:09:01;2.72;;;1.75;;
6983;SDS011;3532;51.118;7.210;2023-02-26T13:11:39;2.00;;;1.80;;
6983;SDS011;3532;51.118;7.210;2023-02-26T13:19:49;1.88;;;1.55;;
6983;SDS011;3532;51.118;7.210;2023-02-26T13:22:19;6.93;;;2.47;;
6983;SDS011;3532;51.118;7.210;2023-02-26T13:24:49;3.38;;;1.67;;
6983;SDS011;3532;51.118;7.210;2023-02-26T13:27:19;2.00;;;1.80;;
6983;SDS011;3532;51.118;7.210;2023-02-26T13:29:50;2.03;;;1.88;;
6983;SDS011;3532;51.118;7.210;2023-02-26T13:32:22;2.45;;;1.88;;
6983;SDS011;3532;51.118;7.210;2023-02-26T13:37:33;1.50;;;1.40;;
6983;SDS011;3532;51.118;7.210;2023-02-26T13:51:39;2.10;;;1.48;;
6983;SDS011;3532;51.118;7.210;2023-02-26T13:54:27;1.95;;;1.65;;
6983;SDS011;3532;51.118;7.210;2023-02-26T14:02:56;2.03;;;1.83;;
6983;SDS011;3532;51.118;7.210;2023-02-26T14:05:30;2.58;;;1.60;;
6983;SDS011;3532;51.118;7.210;2023-02-26T14:08:09;2.85;;;2.08;;
6983;SDS011;3532;51.118;7.210;2023-02-26T14:10:54;2.10;;;1.85;;
6983;SDS011;3532;51.118;7.210;2023-02-26T14:13:30;1.70;;;1.60;;
6983;SDS011;3532;51.118;7.210;2023-02-26T14:16:11;4.28;;;1.77;;
6983;SDS011;3532;51.118;7.210;2023-02-26T14:23:56;3.88;;;1.98;;
6983;SDS011;3532;51.118;7.210;2023-02-26T14:26:23;1.92;;;1.73;;
6983;SDS011;3532;51.118;7.210;2023-02-26T14:34:29;4.20;;;2.50;;
6983;SDS011;3532;51.118;7.210;2023-02-26T14:36:58;3.83;;;1.83;;
6983;SDS011;3532;51.118;7.210;2023-02-26T14:39:29;3.30;;;2.15;;
6983;SDS011;3532;51.118;7.210;2023-02-26T14:42:01;2.70;;;2.03;;
6983;SDS011;3532;51.118;7.210;2023-02-26T14:44:30;3.67;;;2.10;;
6983;SDS011;3532;51.118;7.210;2023-02-26T14:47:00;2.97;;;2.65;;
6983;SDS011;3532;51.118;7.210;2023-02-26T14:57:07;2.43;;;2.13;;
6983;SDS011;3532;51.118;7.210;2023-02-26T15:25:39;2.10;;;1.90;;
6983;SDS011;3532;51.118;7.210;2023-02-26T15:28:08;1.63;;;1.50;;
6983;SDS011;3532;51.118;7.210;2023-02-26T15:30:38;1.73;;;1.63;;
6983;SDS011;3532;51.118;7.210;2023-02-26T15:33:09;2.87;;;2.00;;
6983;SDS011;3532;51.118;7.210;2023-02-26T15:35:36;2.50;;;2.05;;
6983;SDS011;3532;51.118;7.210;2023-02-26T15:38:02;2.73;;;2.50;;
6983;SDS011;3532;51.118;7.210;2023-02-26T15:40:29;1.80;;;1.70;;
6983;SDS011;3532;51.118;7.210;2023-02-26T15:42:57;3.13;;;2.20;;
6983;SDS011;3532;51.118;7.210;2023-02-26T15:47:54;2.00;;;1.80;;
6983;SDS011;3532;51.118;7.210;2023-02-26T15:50:21;3.03;;;1.92;;
6983;SDS011;3532;51.118;7.210;2023-02-26T15:52:54;2.05;;;1.90;;
6983;SDS011;3532;51.118;7.210;2023-02-26T15:55:21;3.45;;;1.92;;
6983;SDS011;3532;51.118;7.210;2023-02-26T15:57:47;2.83;;;2.40;;
6983;SDS011;3532;51.118;7.210;2023-02-26T16:00:17;9.27;;;5.80;;
6983;SDS011;3532;51.118;7.210;2023-02-26T16:02:52;2.50;;;2.30;;
6983;SDS011;3532;51.118;7.210;2023-02-26T16:05:18;2.42;;;2.22;;
6983;SDS011;3532;51.118;7.210;2023-02-26T16:07:43;3.97;;;3.30;;
6983;SDS011;3532;51.118;7.210;2023-02-26T16:12:59;2.83;;;2.63;;
6983;SDS011;3532;51.118;7.210;2023-02-26T16:15:27;4.20;;;2.20;;
6983;SDS011;3532;51.118;7.210;2023-02-26T16:17:57;1.88;;;1.73;;
6983;SDS011;3532;51.118;7.210;2023-02-26T16:20:25;2.38;;;2.00;;
6983;SDS011;3532;51.118;7.210;2023-02-26T16:25:23;1.70;;;1.60;;
6983;SDS011;3532;51.118;7.210;2023-02-26T16:27:58;2.55;;;1.70;;
6983;SDS011;3532;51.118;7.210;2023-02-26T16:30:28;3.17;;;2.00;;
6983;SDS011;3532;51.118;7.210;2023-02-26T16:32:56;2.38;;;2.10;;
6983;SDS011;3532;51.118;7.210;2023-02-26T16:35:22;2.08;;;1.83;;
6983;SDS011;3532;51.118;7.210;2023-02-26T16:37:53;2.00;;;1.80;;
6983;SDS011;3532;51.118;7.210;2023-02-26T16:40:23;3.10;;;1.92;;
6983;SDS011;3532;51.118;7.210;2023-02-26T16:43:04;2.60;;;2.40;;
6983;SDS011;3532;51.118;7.210;2023-02-26T16:47:58;5.75;;;2.03;;
6983;SDS011;3532;51.118;7.210;2023-02-26T16:50:25;2.40;;;2.20;;
6983;SDS011;3532;51.118;7.210;2023-02-26T16:52:56;5.50;;;3.53;;
6983;SDS011;3532;51.118;7.210;2023-02-26T16:55:25;3.28;;;2.25;;
6983;SDS011;3532;51.118;7.210;2023-02-26T16:57:51;4.53;;;3.53;;
6983;SDS011;3532;51.118;7.210;2023-02-26T17:00:18;4.70;;;2.17;;
6983;SDS011;3532;51.118;7.210;2023-02-26T17:02:54;3.35;;;2.83;;
6983;SDS011;3532;51.118;7.210;2023-02-26T17:05:23;6.10;;;2.38;;
6983;SDS011;3532;51.118;7.210;2023-02-26T17:08:08;2.70;;;2.50;;
6983;SDS011;3532;51.118;7.210;2023-02-26T17:10:39;2.28;;;2.08;;
6983;SDS011;3532;51.118;7.210;2023-02-26T17:13:18;2.75;;;2.30;;
6983;SDS011;3532;51.118;7.210;2023-02-26T17:15:49;3.72;;;2.95;;
6983;SDS011;3532;51.118;7.210;2023-02-26T17:18:15;4.78;;;2.70;;
6983;SDS011;3532;51.118;7.210;2023-02-26T17:20:40;2.93;;;2.47;;
6983;SDS011;3532;51.118;7.210;2023-02-26T17:23:06;3.53;;;2.20;;
6983;SDS011;3532;51.118;7.210;2023-02-26T17:25:34;6.18;;;2.45;;
6983;SDS011;3532;51.118;7.210;2023-02-26T17:28:01;4.60;;;2.20;;
6983;SDS011;3532;51.118;7.210;2023-02-26T17:30:27;2.30;;;2.10;;
6983;SDS011;3532;51.118;7.210;2023-02-26T17:32:56;3.28;;;2.40;;
6983;SDS011;3532;51.118;7.210;2023-02-26T17:35:22;3.45;;;2.20;;
6983;SDS011;3532;51.118;7.210;2023-02-26T17:37:48;2.90;;;2.40;;
6983;SDS011;3532;51.118;7.210;2023-02-26T17:40:16;3.15;;;2.63;;
6983;SDS011;3532;51.118;7.210;2023-02-26T17:42:45;3.63;;;2.33;;
6983;SDS011;3532;51.118;7.210;2023-02-26T17:45:10;3.60;;;2.50;;
6983;SDS011;3532;51.118;7.210;2023-02-26T17:47:35;3.73;;;3.00;;
6983;SDS011;3532;51.118;7.210;2023-02-26T17:50:01;3.33;;;2.60;;
6983;SDS011;3532;51.118;7.210;2023-02-26T17:52:26;3.97;;;3.50;;
6983;SDS011;3532;51.118;7.210;2023-02-26T17:54:51;5.27;;;3.60;;
6983;SDS011;3532;51.118;7.210;2023-02-26T17:57:18;4.63;;;3.17;;
6983;SDS011;3532;51.118;7.210;2023-02-26T17:59:44;5.18;;;4.10;;
6983;SDS011;3532;51.118;7.210;2023-02-26T18:02:17;4.33;;;3.43;;
6983;SDS011;3532;51.118;7.210;2023-02-26T18:04:46;4.63;;;3.20;;
6983;SDS011;3532;51.118;7.210;2023-02-26T18:07:13;4.13;;;3.73;;
6983;SDS011;3532;51.118;7.210;2023-02-26T18:09:40;7.35;;;4.28;;
6983;SDS011;3532;51.118;7.210;2023-02-26T18:12:08;6.13;;;3.03;;
6983;SDS011;3532;51.118;7.210;2023-02-26T18:14:36;3.67;;;3.08;;
6983;SDS011;3532;51.118;7.210;2023-02-26T18:17:01;3.40;;;3.10;;
6983;SDS011;3532;51.118;7.210;2023-02-26T18:19:27;4.13;;;3.70;;
6983;SDS011;3532;51.118;7.210;2023-02-26T18:21:52;5.47;;;3.93;;
6983;SDS011;3532;51.118;7.210;2023-02-26T18:24:17;4.70;;;3.90;;
6983;SDS011;3532;51.118;7.210;2023-02-26T18:26:43;4.30;;;3.40;;
6983;SDS011;3532;51.118;7.210;2023-02-26T18:29:08;5.50;;;3.80;;
6983;SDS011;3532;51.118;7.210;2023-02-26T18:31:35;6.60;;;3.00;;
6983;SDS011;3532;51.118;7.210;2023-02-26T18:34:01;7.10;;;4.90;;
6983;SDS011;3532;51.118;7.210;2023-02-26T18:36:29;9.00;;;5.50;;
6983;SDS011;3532;51.118;7.210;2023-02-26T18:39:02;10.00;;;6.78;;
6983;SDS011;3532;51.118;7.210;2023-02-26T18:41:30;3.67;;;3.33;;